Terminal Aerodrome Forecast
Issued by NWS

Home | Current Version | Previous Version | Text Only | Print | Product List | Glossary On
Versions: 1 2 3 4 5 6 7 8 9 10 11 12 13 14 15
000
FTUS43 KBIS 230600 AAA
TAFMOT
TAF AMD
KMOT 230609Z 2306/2406 10017G24KT P6SM FEW180 SCT250
     FM230900 11020G27KT P6SM VCSH BKN090 BKN120 OVC180
      TEMPO 2310/2311 -SHRA BKN050 OVC080
     FM231100 12022G31KT P6SM -SHRA BKN035 OVC050
     FM231600 12024G32KT P6SM VCSH BKN025 OVC040
     FM231900 12019G25KT P6SM -SHRA OVC018
     FM232100 17011KT P6SM -SHRA SCT015 OVC025
     FM232300 24011KT P6SM OVC020=

USA.gov is the U.S. government's official web portal to all federal, state and local government web resources and services.